Flandriya — UBBH2 — position and weather

sailwx.info

Track history (hours):
 
Tides and Currents Weather Stations Pressure Air Temp Water Temp Dewpoint Dewpoint Depression Visibility Wind Speed Wind Dir Waves Ship Positions

Flandriya

Last reported at 2017-Jan-23 09:33 UTC. Time now 2017-Jan-23 10:31 UTC.
Position N 59°55' E 030°14'.

Length 81 m; draft 4.5 m.

Type: Ship. MMSI: 273350220.

Date/timePositionNaut miles runAvg speedWind from/ knotsBaromVisibWave heightAir tempDewpointWater temp
2017-Jan-23 09:33N 59°55' E 030°14'0 0.0
2017-Jan-23 08:33N 59°55' E 030°14'0 0.0
2017-Jan-23 07:33N 59°55' E 030°14'0 0.0
2017-Jan-23 06:28N 59°55' E 030°14'0 0.0
2017-Jan-23 05:31N 59°55' E 030°14'0 0.1
2017-Jan-23 04:31N 59°55' E 030°14'3 2.6
2017-Jan-23 03:31N 59°52' E 030°13'0 0.1
2017-Jan-23 02:31N 59°52' E 030°13'0 0.0
2017-Jan-23 01:31N 59°52' E 030°13'0 0.0
2017-Jan-23 00:31N 59°52' E 030°13'0 0.0
2017-Jan-22 23:31N 59°52' E 030°13'0 0.0
2017-Jan-22 22:31N 59°52' E 030°13'0 0.0
2017-Jan-22 21:31N 59°52' E 030°13'0 0.0
2017-Jan-22 20:31N 59°52' E 030°13'0 0.0
2017-Jan-22 19:28N 59°52' E 030°13'0 0.0
2017-Jan-22 18:22N 59°52' E 030°13'0 0.0
2017-Jan-22 17:31N 59°52' E 030°13'1 1.1
2017-Jan-22 16:28N 59°53' E 030°12'0 0.0
2017-Jan-22 15:28N 59°53' E 030°12'0 0.0
2017-Jan-22 14:31N 59°53' E 030°12'0 0.0
2017-Jan-22 13:31N 59°53' E 030°12'2 1.7
2017-Jan-22 12:31N 59°55' E 030°14'0 0.2
2017-Jan-22 11:31N 59°55' E 030°14'0 0.0
2017-Jan-22 10:31N 59°55' E 030°14'0 0.0
2017-Jan-22 09:31N 59°55' E 030°14'0 0.0
2017-Jan-22 08:31N 59°55' E 030°14'0 0.0
2017-Jan-22 07:31N 59°55' E 030°14'0 0.0
2017-Jan-22 06:31N 59°55' E 030°14'0 0.0
2017-Jan-22 05:31N 59°55' E 030°14'0 0.0
2017-Jan-22 04:31N 59°55' E 030°14'0 0.0
2017-Jan-22 03:31N 59°55' E 030°14'0 0.0
2017-Jan-22 02:31N 59°55' E 030°14'0 0.0
2017-Jan-22 01:31N 59°55' E 030°14'0 0.0
2017-Jan-22 00:31N 59°55' E 030°14'0 0.0
2017-Jan-21 23:31N 59°55' E 030°14'0 0.0
2017-Jan-21 22:31N 59°55' E 030°14'0 0.0
2017-Jan-21 21:31N 59°55' E 030°14'0 0.0
2017-Jan-21 20:28N 59°55' E 030°14'0 0.0
2017-Jan-21 19:31N 59°55' E 030°14'0 0.0
2017-Jan-21 18:31N 59°55' E 030°14'0 0.0
2017-Jan-21 17:31N 59°55' E 030°14'0 0.0
2017-Jan-21 16:31N 59°55' E 030°14'0 0.0
2017-Jan-21 15:31N 59°55' E 030°14'0 0.0
2017-Jan-21 14:31N 59°55' E 030°14'0 0.0
2017-Jan-21 13:31N 59°55' E 030°14'0 0.0
2017-Jan-21 12:31N 59°55' E 030°14'0 0.0
2017-Jan-21 11:31N 59°55' E 030°14'1 1.2
2017-Jan-21 10:31N 59°54' E 030°13'1 0.9
2017-Jan-21 09:31N 59°53' E 030°11'0 0.0
2017-Jan-21 08:31N 59°53' E 030°11'0 0.0
2017-Jan-21 07:31N 59°53' E 030°11'0 0.0
2017-Jan-21 06:31N 59°53' E 030°11'0 0.0
2017-Jan-21 05:31N 59°53' E 030°11'0 0.0
2017-Jan-21 04:31N 59°53' E 030°11'0 0.0
2017-Jan-21 03:31N 59°53' E 030°11'0 0.0
2017-Jan-21 02:28N 59°53' E 030°11'0 0.0
2017-Jan-21 01:31N 59°53' E 030°11'0 0.0
2017-Jan-21 00:31N 59°53' E 030°11'0 0.0
2017-Jan-20 23:31N 59°53' E 030°11'0 0.0
2017-Jan-20 22:31N 59°53' E 030°11'0 0.3
2017-Jan-20 21:31N 59°53' E 030°11'2 1.9
2017-Jan-20 20:31N 59°55' E 030°14'0 0.0
2017-Jan-20 19:31N 59°55' E 030°14'0 0.0
2017-Jan-20 18:31N 59°55' E 030°14'0 0.0
2017-Jan-20 17:31N 59°55' E 030°14'0 0.0
2017-Jan-20 16:31N 59°55' E 030°14'0 0.0
2017-Jan-20 15:31N 59°55' E 030°14'0 0.0
2017-Jan-20 14:31N 59°55' E 030°14'0 0.0
2017-Jan-20 13:31N 59°55' E 030°14'0 0.0
2017-Jan-20 12:31N 59°55' E 030°14'0 0.0
2017-Jan-20 11:31N 59°55' E 030°14'0 0.0
2017-Jan-20 10:31N 59°55' E 030°14'0 0.0
2017-Jan-20 09:31N 59°55' E 030°14'0 0.0
2017-Jan-20 08:31N 59°55' E 030°14'0 0.0
2017-Jan-20 07:31N 59°55' E 030°14'0 0.0
2017-Jan-20 06:31N 59°55' E 030°14'0 0.0
2017-Jan-20 05:31N 59°55' E 030°14'0 0.0
2017-Jan-20 04:31N 59°55' E 030°14'0 0.0
2017-Jan-20 03:31N 59°55' E 030°14'0 0.0
2017-Jan-20 02:31N 59°55' E 030°14'0 0.0
2017-Jan-20 01:31N 59°55' E 030°14'0 0.0
2017-Jan-20 00:31N 59°55' E 030°14'0 0.0
2017-Jan-19 23:31N 59°55' E 030°14'0 0.0
2017-Jan-19 22:31N 59°55' E 030°14'0 0.0
2017-Jan-19 21:31N 59°55' E 030°14'0 0.0
2017-Jan-19 20:31N 59°55' E 030°14'0 0.0
2017-Jan-19 19:31N 59°55' E 030°14'0 0.0
2017-Jan-19 18:31N 59°55' E 030°14'0 0.0
2017-Jan-19 17:28N 59°55' E 030°14'0 0.0
2017-Jan-19 16:31N 59°55' E 030°14'0 0.0
2017-Jan-19 15:31N 59°55' E 030°14'0 0.0
2017-Jan-19 14:31N 59°55' E 030°14'0 0.0
2017-Jan-19 13:31N 59°55' E 030°14'0 0.0
2017-Jan-19 12:31N 59°55' E 030°14'0 0.0
2017-Jan-19 11:31N 59°55' E 030°14'0 0.0
2017-Jan-19 10:31N 59°55' E 030°14'0 0.0
2017-Jan-19 09:31N 59°55' E 030°14'0 0.0
2017-Jan-19 08:31N 59°55' E 030°14'0 0.0
2017-Jan-19 07:31N 59°55' E 030°14'0 0.0
2017-Jan-19 06:31N 59°55' E 030°14'0 0.0
2017-Jan-19 05:31N 59°55' E 030°14'0 0.0
2017-Jan-19 04:28N 59°55' E 030°14'0 0.0
2017-Jan-19 03:31N 59°55' E 030°14'0 0.0
2017-Jan-19 02:31N 59°55' E 030°14'0 0.0
2017-Jan-19 01:31N 59°55' E 030°14'0 0.0
2017-Jan-19 00:31N 59°55' E 030°14'0 0.0
2017-Jan-18 23:31N 59°55' E 030°14'0 0.0
2017-Jan-18 22:31N 59°55' E 030°14'0 0.0
2017-Jan-18 21:31N 59°55' E 030°14'0 0.0
2017-Jan-18 20:28N 59°55' E 030°14'0 0.0
2017-Jan-18 19:31N 59°55' E 030°14'0 0.0
2017-Jan-18 18:31N 59°55' E 030°14'0 0.0
2017-Jan-18 17:28N 59°55' E 030°14'0 0.0
2017-Jan-18 16:28N 59°55' E 030°14'0 0.0
2017-Jan-18 15:31N 59°55' E 030°14'0 0.0
2017-Jan-18 14:28N 59°55' E 030°14'0 0.0
2017-Jan-18 13:25N 59°55' E 030°14'0 0.0
2017-Jan-18 12:31N 59°55' E 030°14'0 0.0
2017-Jan-18 11:31N 59°55' E 030°14'0 0.0
2017-Jan-18 10:31N 59°55' E 030°14'0 0.0
2017-Jan-18 09:31N 59°55' E 030°14'0 0.0
2017-Jan-18 08:31N 59°55' E 030°14'0 0.0
2017-Jan-18 07:31N 59°55' E 030°14'0 0.0
2017-Jan-18 06:31N 59°55' E 030°14'0 0.0
2017-Jan-18 05:31N 59°55' E 030°14'0 0.0
2017-Jan-18 04:28N 59°55' E 030°14'0 0.0
2017-Jan-18 03:31N 59°55' E 030°14'0 0.0
2017-Jan-18 02:31N 59°55' E 030°14'0 0.0
2017-Jan-18 01:31N 59°55' E 030°14'0 0.0
2017-Jan-18 00:31N 59°55' E 030°14'0 0.0
2017-Jan-17 23:31N 59°55' E 030°14'0 0.0
2017-Jan-17 22:31N 59°55' E 030°14'0 0.2
2017-Jan-17 21:31N 59°55' E 030°14'0 0.2
2017-Jan-17 20:31N 59°55' E 030°14'0 0.0
2017-Jan-17 19:31N 59°55' E 030°14'0 0.0
2017-Jan-17 18:31N 59°55' E 030°14'0 0.0
2017-Jan-17 17:31N 59°55' E 030°14'0 0.0
2017-Jan-17 16:31N 59°55' E 030°14'0 0.0
2017-Jan-17 15:31N 59°55' E 030°14'1 1.0
2017-Jan-17 14:31N 59°54' E 030°13'0 0.4
2017-Jan-17 13:31N 59°54' E 030°13'0 0.0
2017-Jan-17 12:31N 59°54' E 030°13'0 0.0
2017-Jan-17 11:31N 59°54' E 030°13'0 0.0
2017-Jan-17 10:31N 59°54' E 030°13'0 0.0
2017-Jan-17 09:31N 59°54' E 030°13'0 0.0
2017-Jan-17 08:31N 59°54' E 030°13'0 0.2
2017-Jan-17 07:31N 59°53' E 030°13'0 0.2
2017-Jan-17 06:25N 59°53' E 030°13'0 0.0
2017-Jan-17 05:31N 59°53' E 030°13'0 0.0
2017-Jan-17 04:19N 59°53' E 030°13'0 0.2
2017-Jan-17 03:31N 59°53' E 030°12'1 1.4
2017-Jan-17 02:31N 59°55' E 030°14'0 0.0
2017-Jan-17 01:31N 59°55' E 030°14'0 0.0
2017-Jan-17 00:31N 59°55' E 030°14'0 0.0
2017-Jan-16 23:31N 59°55' E 030°14'0 0.0
2017-Jan-16 22:31N 59°55' E 030°14'0 0.0
2017-Jan-16 21:31N 59°55' E 030°14'0 0.0
2017-Jan-16 20:31N 59°55' E 030°14'0 0.0
2017-Jan-16 19:31N 59°55' E 030°14'0 0.0
2017-Jan-16 18:31N 59°55' E 030°14'0 0.0
2017-Jan-16 17:31N 59°55' E 030°14'0 0.0
2017-Jan-16 16:31N 59°55' E 030°14'0 0.0
2017-Jan-16 15:31N 59°55' E 030°14'0 0.0
2017-Jan-16 14:31N 59°55' E 030°14'0 0.0
2017-Jan-16 13:31N 59°55' E 030°14'0 0.0
2017-Jan-16 12:31N 59°55' E 030°14'0 0.0
2017-Jan-16 11:31N 59°55' E 030°14'0 0.0
2017-Jan-16 10:31N 59°55' E 030°14'0 0.0
2017-Jan-16 09:31N 59°55' E 030°14'0 0.0
2017-Jan-16 08:31N 59°55' E 030°14'0 0.0
2017-Jan-16 07:31N 59°55' E 030°14'0 0.0
2017-Jan-16 06:31N 59°55' E 030°14'0 0.0
2017-Jan-16 05:31N 59°55' E 030°14'0 0.0
2017-Jan-16 04:31N 59°55' E 030°14'0 0.0
2017-Jan-16 03:31N 59°55' E 030°14'0 0.0
2017-Jan-16 02:31N 59°55' E 030°14'0 0.0
2017-Jan-16 01:31N 59°55' E 030°14'0 0.0
2017-Jan-16 00:31N 59°55' E 030°14'0 0.0
2017-Jan-15 23:28N 59°55' E 030°14'0 0.0
2017-Jan-15 22:31N 59°55' E 030°14'0 0.0
2017-Jan-15 21:31N 59°55' E 030°14'0 0.0
2017-Jan-15 20:31N 59°55' E 030°14'0 0.0
2017-Jan-15 19:31N 59°55' E 030°14'0 0.0
2017-Jan-15 18:31N 59°55' E 030°14'0 0.0
2017-Jan-15 17:31N 59°55' E 030°14'0 0.0
2017-Jan-15 16:31N 59°55' E 030°14'0 0.0
2017-Jan-15 15:31N 59°55' E 030°14'0 0.0
2017-Jan-15 14:31N 59°55' E 030°14'0 0.0
2017-Jan-15 13:31N 59°55' E 030°14'0 0.0
2017-Jan-15 12:25N 59°55' E 030°14'0 0.0
2017-Jan-15 11:31N 59°55' E 030°14'0 0.0
2017-Jan-15 10:31N 59°55' E 030°14'0 0.0
2017-Jan-15 09:31N 59°55' E 030°14'0 0.0
2017-Jan-15 08:31N 59°55' E 030°14'0 0.0
2017-Jan-15 07:31N 59°55' E 030°14'0 0.0
2017-Jan-15 06:28N 59°55' E 030°14'0 0.0
2017-Jan-15 05:31N 59°55' E 030°14'0 0.0
2017-Jan-15 04:31N 59°55' E 030°14'0 0.0
2017-Jan-15 03:31N 59°55' E 030°14'0 0.0
2017-Jan-15 02:31N 59°55' E 030°14'0 0.0
2017-Jan-15 01:31N 59°55' E 030°14'0 0.0
2017-Jan-15 00:31N 59°55' E 030°14'0 0.0
2017-Jan-14 23:31N 59°55' E 030°14'0 0.0
2017-Jan-14 22:31N 59°55' E 030°14'0 0.0
2017-Jan-14 21:31N 59°55' E 030°14'0 0.0
2017-Jan-14 20:31N 59°55' E 030°14'0 0.0
2017-Jan-14 19:31N 59°55' E 030°14'0 0.0
2017-Jan-14 18:31N 59°55' E 030°14'0 0.3
2017-Jan-14 17:31N 59°55' E 030°14'0 0.0
2017-Jan-14 16:31N 59°55' E 030°14'0 0.0
2017-Jan-14 15:31N 59°55' E 030°14'0 0.0
2017-Jan-14 14:28N 59°55' E 030°14'0 0.0
2017-Jan-14 13:31N 59°55' E 030°14'0 0.0
2017-Jan-14 12:31N 59°55' E 030°14'0 0.0
2017-Jan-14 11:31N 59°55' E 030°14'0 0.0
2017-Jan-14 10:31N 59°55' E 030°14'0 0.0
2017-Jan-14 09:31N 59°55' E 030°14'0 0.0
2017-Jan-14 08:31N 59°55' E 030°14'0 0.4
2017-Jan-14 07:31N 59°54' E 030°13'0 0.0
2017-Jan-14 06:31N 59°54' E 030°13'0 0.0
2017-Jan-14 05:31N 59°54' E 030°13'0 0.0
2017-Jan-14 04:31N 59°54' E 030°13'0 0.0
2017-Jan-14 03:31N 59°54' E 030°13'0 0.0
2017-Jan-13 23:31N 59°54' E 030°13'0 0.0
2017-Jan-13 22:31N 59°54' E 030°13'0 0.0
2017-Jan-13 21:31N 59°54' E 030°13'0 0.5
2017-Jan-13 20:31N 59°55' E 030°14'3 2.7
2017-Jan-13 19:31N 59°52' E 030°13'0 0.0
2017-Jan-13 18:31N 59°52' E 030°13'0 0.0
2017-Jan-13 17:31N 59°52' E 030°13'0 0.0
2017-Jan-13 16:31N 59°52' E 030°13'0 0.0
2017-Jan-13 15:28N 59°52' E 030°13'0 0.0
2017-Jan-13 14:31N 59°52' E 030°13'0 0.0
2017-Jan-13 13:28N 59°52' E 030°13'0 0.0
2017-Jan-13 12:28N 59°52' E 030°13'0 0.0
2017-Jan-13 11:28N 59°52' E 030°13'  
Track history (hours):
 
Tides and Currents Weather Stations Pressure Air Temp Water Temp Dewpoint Dewpoint Depression Visibility Wind Speed Wind Dir Waves Ship Positions

Flandriya

Last reported at 2017-Jan-23 09:33 UTC. Time now 2017-Jan-23 10:31 UTC.
Position N 59°55' E 030°14'.

Length 81 m; draft 4.5 m.

Type: Ship. MMSI: 273350220.

Date/timePositionNaut miles runAvg speedWind from/ knotsBaromVisibWave heightAir tempDewpointWater temp
2017-Jan-23 09:33N 59°55' E 030°14'0 0.0
2017-Jan-23 08:33N 59°55' E 030°14'0 0.0
2017-Jan-23 07:33N 59°55' E 030°14'0 0.0
2017-Jan-23 06:28N 59°55' E 030°14'0 0.0
2017-Jan-23 05:31N 59°55' E 030°14'0 0.1
2017-Jan-23 04:31N 59°55' E 030°14'3 2.6
2017-Jan-23 03:31N 59°52' E 030°13'0 0.1
2017-Jan-23 02:31N 59°52' E 030°13'0 0.0
2017-Jan-23 01:31N 59°52' E 030°13'0 0.0
2017-Jan-23 00:31N 59°52' E 030°13'0 0.0
2017-Jan-22 23:31N 59°52' E 030°13'0 0.0
2017-Jan-22 22:31N 59°52' E 030°13'0 0.0
2017-Jan-22 21:31N 59°52' E 030°13'0 0.0
2017-Jan-22 20:31N 59°52' E 030°13'0 0.0
2017-Jan-22 19:28N 59°52' E 030°13'0 0.0
2017-Jan-22 18:22N 59°52' E 030°13'0 0.0
2017-Jan-22 17:31N 59°52' E 030°13'1 1.1
2017-Jan-22 16:28N 59°53' E 030°12'0 0.0
2017-Jan-22 15:28N 59°53' E 030°12'0 0.0
2017-Jan-22 14:31N 59°53' E 030°12'0 0.0
2017-Jan-22 13:31N 59°53' E 030°12'2 1.7
2017-Jan-22 12:31N 59°55' E 030°14'0 0.2
2017-Jan-22 11:31N 59°55' E 030°14'0 0.0
2017-Jan-22 10:31N 59°55' E 030°14'0 0.0
2017-Jan-22 09:31N 59°55' E 030°14'0 0.0
2017-Jan-22 08:31N 59°55' E 030°14'0 0.0
2017-Jan-22 07:31N 59°55' E 030°14'0 0.0
2017-Jan-22 06:31N 59°55' E 030°14'0 0.0
2017-Jan-22 05:31N 59°55' E 030°14'0 0.0
2017-Jan-22 04:31N 59°55' E 030°14'0 0.0
2017-Jan-22 03:31N 59°55' E 030°14'0 0.0
2017-Jan-22 02:31N 59°55' E 030°14'0 0.0
2017-Jan-22 01:31N 59°55' E 030°14'0 0.0
2017-Jan-22 00:31N 59°55' E 030°14'0 0.0
2017-Jan-21 23:31N 59°55' E 030°14'0 0.0
2017-Jan-21 22:31N 59°55' E 030°14'0 0.0
2017-Jan-21 21:31N 59°55' E 030°14'0 0.0
2017-Jan-21 20:28N 59°55' E 030°14'0 0.0
2017-Jan-21 19:31N 59°55' E 030°14'0 0.0
2017-Jan-21 18:31N 59°55' E 030°14'0 0.0
2017-Jan-21 17:31N 59°55' E 030°14'0 0.0
2017-Jan-21 16:31N 59°55' E 030°14'0 0.0
2017-Jan-21 15:31N 59°55' E 030°14'0 0.0
2017-Jan-21 14:31N 59°55' E 030°14'0 0.0
2017-Jan-21 13:31N 59°55' E 030°14'0 0.0
2017-Jan-21 12:31N 59°55' E 030°14'0 0.0
2017-Jan-21 11:31N 59°55' E 030°14'1 1.2
2017-Jan-21 10:31N 59°54' E 030°13'1 0.9
2017-Jan-21 09:31N 59°53' E 030°11'0 0.0
2017-Jan-21 08:31N 59°53' E 030°11'0 0.0
2017-Jan-21 07:31N 59°53' E 030°11'0 0.0
2017-Jan-21 06:31N 59°53' E 030°11'0 0.0
2017-Jan-21 05:31N 59°53' E 030°11'0 0.0
2017-Jan-21 04:31N 59°53' E 030°11'0 0.0
2017-Jan-21 03:31N 59°53' E 030°11'0 0.0
2017-Jan-21 02:28N 59°53' E 030°11'0 0.0
2017-Jan-21 01:31N 59°53' E 030°11'0 0.0
2017-Jan-21 00:31N 59°53' E 030°11'0 0.0
2017-Jan-20 23:31N 59°53' E 030°11'0 0.0
2017-Jan-20 22:31N 59°53' E 030°11'0 0.3
2017-Jan-20 21:31N 59°53' E 030°11'2 1.9
2017-Jan-20 20:31N 59°55' E 030°14'0 0.0
2017-Jan-20 19:31N 59°55' E 030°14'0 0.0
2017-Jan-20 18:31N 59°55' E 030°14'0 0.0
2017-Jan-20 17:31N 59°55' E 030°14'0 0.0
2017-Jan-20 16:31N 59°55' E 030°14'0 0.0
2017-Jan-20 15:31N 59°55' E 030°14'0 0.0
2017-Jan-20 14:31N 59°55' E 030°14'0 0.0
2017-Jan-20 13:31N 59°55' E 030°14'0 0.0
2017-Jan-20 12:31N 59°55' E 030°14'0 0.0
2017-Jan-20 11:31N 59°55' E 030°14'0 0.0
2017-Jan-20 10:31N 59°55' E 030°14'0 0.0
2017-Jan-20 09:31N 59°55' E 030°14'0 0.0
2017-Jan-20 08:31N 59°55' E 030°14'0 0.0
2017-Jan-20 07:31N 59°55' E 030°14'0 0.0
2017-Jan-20 06:31N 59°55' E 030°14'0 0.0
2017-Jan-20 05:31N 59°55' E 030°14'0 0.0
2017-Jan-20 04:31N 59°55' E 030°14'0 0.0
2017-Jan-20 03:31N 59°55' E 030°14'0 0.0
2017-Jan-20 02:31N 59°55' E 030°14'0 0.0
2017-Jan-20 01:31N 59°55' E 030°14'0 0.0
2017-Jan-20 00:31N 59°55' E 030°14'0 0.0
2017-Jan-19 23:31N 59°55' E 030°14'0 0.0
2017-Jan-19 22:31N 59°55' E 030°14'0 0.0
2017-Jan-19 21:31N 59°55' E 030°14'0 0.0
2017-Jan-19 20:31N 59°55' E 030°14'0 0.0
2017-Jan-19 19:31N 59°55' E 030°14'0 0.0
2017-Jan-19 18:31N 59°55' E 030°14'0 0.0
2017-Jan-19 17:28N 59°55' E 030°14'0 0.0
2017-Jan-19 16:31N 59°55' E 030°14'0 0.0
2017-Jan-19 15:31N 59°55' E 030°14'0 0.0
2017-Jan-19 14:31N 59°55' E 030°14'0 0.0
2017-Jan-19 13:31N 59°55' E 030°14'0 0.0
2017-Jan-19 12:31N 59°55' E 030°14'0 0.0
2017-Jan-19 11:31N 59°55' E 030°14'0 0.0
2017-Jan-19 10:31N 59°55' E 030°14'0 0.0
2017-Jan-19 09:31N 59°55' E 030°14'0 0.0
2017-Jan-19 08:31N 59°55' E 030°14'0 0.0
2017-Jan-19 07:31N 59°55' E 030°14'0 0.0
2017-Jan-19 06:31N 59°55' E 030°14'0 0.0
2017-Jan-19 05:31N 59°55' E 030°14'0 0.0
2017-Jan-19 04:28N 59°55' E 030°14'0 0.0
2017-Jan-19 03:31N 59°55' E 030°14'0 0.0
2017-Jan-19 02:31N 59°55' E 030°14'0 0.0
2017-Jan-19 01:31N 59°55' E 030°14'0 0.0
2017-Jan-19 00:31N 59°55' E 030°14'0 0.0
2017-Jan-18 23:31N 59°55' E 030°14'0 0.0
2017-Jan-18 22:31N 59°55' E 030°14'0 0.0
2017-Jan-18 21:31N 59°55' E 030°14'0 0.0
2017-Jan-18 20:28N 59°55' E 030°14'0 0.0
2017-Jan-18 19:31N 59°55' E 030°14'0 0.0
2017-Jan-18 18:31N 59°55' E 030°14'0 0.0
2017-Jan-18 17:28N 59°55' E 030°14'0 0.0
2017-Jan-18 16:28N 59°55' E 030°14'0 0.0
2017-Jan-18 15:31N 59°55' E 030°14'0 0.0
2017-Jan-18 14:28N 59°55' E 030°14'0 0.0
2017-Jan-18 13:25N 59°55' E 030°14'0 0.0
2017-Jan-18 12:31N 59°55' E 030°14'0 0.0
2017-Jan-18 11:31N 59°55' E 030°14'0 0.0
2017-Jan-18 10:31N 59°55' E 030°14'0 0.0
2017-Jan-18 09:31N 59°55' E 030°14'0 0.0
2017-Jan-18 08:31N 59°55' E 030°14'0 0.0
2017-Jan-18 07:31N 59°55' E 030°14'0 0.0
2017-Jan-18 06:31N 59°55' E 030°14'0 0.0
2017-Jan-18 05:31N 59°55' E 030°14'0 0.0
2017-Jan-18 04:28N 59°55' E 030°14'0 0.0
2017-Jan-18 03:31N 59°55' E 030°14'0 0.0
2017-Jan-18 02:31N 59°55' E 030°14'0 0.0
2017-Jan-18 01:31N 59°55' E 030°14'0 0.0
2017-Jan-18 00:31N 59°55' E 030°14'0 0.0
2017-Jan-17 23:31N 59°55' E 030°14'0 0.0
2017-Jan-17 22:31N 59°55' E 030°14'0 0.2
2017-Jan-17 21:31N 59°55' E 030°14'0 0.2
2017-Jan-17 20:31N 59°55' E 030°14'0 0.0
2017-Jan-17 19:31N 59°55' E 030°14'0 0.0
2017-Jan-17 18:31N 59°55' E 030°14'0 0.0
2017-Jan-17 17:31N 59°55' E 030°14'0 0.0
2017-Jan-17 16:31N 59°55' E 030°14'0 0.0
2017-Jan-17 15:31N 59°55' E 030°14'1 1.0
2017-Jan-17 14:31N 59°54' E 030°13'0 0.4
2017-Jan-17 13:31N 59°54' E 030°13'0 0.0
2017-Jan-17 12:31N 59°54' E 030°13'0 0.0
2017-Jan-17 11:31N 59°54' E 030°13'0 0.0
2017-Jan-17 10:31N 59°54' E 030°13'0 0.0
2017-Jan-17 09:31N 59°54' E 030°13'0 0.0
2017-Jan-17 08:31N 59°54' E 030°13'0 0.2
2017-Jan-17 07:31N 59°53' E 030°13'0 0.2
2017-Jan-17 06:25N 59°53' E 030°13'0 0.0
2017-Jan-17 05:31N 59°53' E 030°13'0 0.0
2017-Jan-17 04:19N 59°53' E 030°13'0 0.2
2017-Jan-17 03:31N 59°53' E 030°12'1 1.4
2017-Jan-17 02:31N 59°55' E 030°14'0 0.0
2017-Jan-17 01:31N 59°55' E 030°14'0 0.0
2017-Jan-17 00:31N 59°55' E 030°14'0 0.0
2017-Jan-16 23:31N 59°55' E 030°14'0 0.0
2017-Jan-16 22:31N 59°55' E 030°14'0 0.0
2017-Jan-16 21:31N 59°55' E 030°14'0 0.0
2017-Jan-16 20:31N 59°55' E 030°14'0 0.0
2017-Jan-16 19:31N 59°55' E 030°14'0 0.0
2017-Jan-16 18:31N 59°55' E 030°14'0 0.0
2017-Jan-16 17:31N 59°55' E 030°14'0 0.0
2017-Jan-16 16:31N 59°55' E 030°14'0 0.0
2017-Jan-16 15:31N 59°55' E 030°14'0 0.0
2017-Jan-16 14:31N 59°55' E 030°14'0 0.0
2017-Jan-16 13:31N 59°55' E 030°14'0 0.0
2017-Jan-16 12:31N 59°55' E 030°14'0 0.0
2017-Jan-16 11:31N 59°55' E 030°14'0 0.0
2017-Jan-16 10:31N 59°55' E 030°14'0 0.0
2017-Jan-16 09:31N 59°55' E 030°14'0 0.0
2017-Jan-16 08:31N 59°55' E 030°14'0 0.0
2017-Jan-16 07:31N 59°55' E 030°14'0 0.0
2017-Jan-16 06:31N 59°55' E 030°14'0 0.0
2017-Jan-16 05:31N 59°55' E 030°14'0 0.0
2017-Jan-16 04:31N 59°55' E 030°14'0 0.0
2017-Jan-16 03:31N 59°55' E 030°14'0 0.0
2017-Jan-16 02:31N 59°55' E 030°14'0 0.0
2017-Jan-16 01:31N 59°55' E 030°14'0 0.0
2017-Jan-16 00:31N 59°55' E 030°14'0 0.0
2017-Jan-15 23:28N 59°55' E 030°14'0 0.0
2017-Jan-15 22:31N 59°55' E 030°14'0 0.0
2017-Jan-15 21:31N 59°55' E 030°14'0 0.0
2017-Jan-15 20:31N 59°55' E 030°14'0 0.0
2017-Jan-15 19:31N 59°55' E 030°14'0 0.0
2017-Jan-15 18:31N 59°55' E 030°14'0 0.0
2017-Jan-15 17:31N 59°55' E 030°14'0 0.0
2017-Jan-15 16:31N 59°55' E 030°14'0 0.0
2017-Jan-15 15:31N 59°55' E 030°14'0 0.0
2017-Jan-15 14:31N 59°55' E 030°14'0 0.0
2017-Jan-15 13:31N 59°55' E 030°14'0 0.0
2017-Jan-15 12:25N 59°55' E 030°14'0 0.0
2017-Jan-15 11:31N 59°55' E 030°14'0 0.0
2017-Jan-15 10:31N 59°55' E 030°14'0 0.0
2017-Jan-15 09:31N 59°55' E 030°14'0 0.0
2017-Jan-15 08:31N 59°55' E 030°14'0 0.0
2017-Jan-15 07:31N 59°55' E 030°14'0 0.0
2017-Jan-15 06:28N 59°55' E 030°14'0 0.0
2017-Jan-15 05:31N 59°55' E 030°14'0 0.0
2017-Jan-15 04:31N 59°55' E 030°14'0 0.0
2017-Jan-15 03:31N 59°55' E 030°14'0 0.0
2017-Jan-15 02:31N 59°55' E 030°14'0 0.0
2017-Jan-15 01:31N 59°55' E 030°14'0 0.0
2017-Jan-15 00:31N 59°55' E 030°14'0 0.0
2017-Jan-14 23:31N 59°55' E 030°14'0 0.0
2017-Jan-14 22:31N 59°55' E 030°14'0 0.0
2017-Jan-14 21:31N 59°55' E 030°14'0 0.0
2017-Jan-14 20:31N 59°55' E 030°14'0 0.0
2017-Jan-14 19:31N 59°55' E 030°14'0 0.0
2017-Jan-14 18:31N 59°55' E 030°14'0 0.3
2017-Jan-14 17:31N 59°55' E 030°14'0 0.0
2017-Jan-14 16:31N 59°55' E 030°14'0 0.0
2017-Jan-14 15:31N 59°55' E 030°14'0 0.0
2017-Jan-14 14:28N 59°55' E 030°14'0 0.0
2017-Jan-14 13:31N 59°55' E 030°14'0 0.0
2017-Jan-14 12:31N 59°55' E 030°14'0 0.0
2017-Jan-14 11:31N 59°55' E 030°14'0 0.0
2017-Jan-14 10:31N 59°55' E 030°14'0 0.0
2017-Jan-14 09:31N 59°55' E 030°14'0 0.0
2017-Jan-14 08:31N 59°55' E 030°14'0 0.4
2017-Jan-14 07:31N 59°54' E 030°13'0 0.0
2017-Jan-14 06:31N 59°54' E 030°13'0 0.0
2017-Jan-14 05:31N 59°54' E 030°13'0 0.0
2017-Jan-14 04:31N 59°54' E 030°13'0 0.0
2017-Jan-14 03:31N 59°54' E 030°13'0 0.0
2017-Jan-13 23:31N 59°54' E 030°13'0 0.0
2017-Jan-13 22:31N 59°54' E 030°13'0 0.0
2017-Jan-13 21:31N 59°54' E 030°13'0 0.5
2017-Jan-13 20:31N 59°55' E 030°14'3 2.7
2017-Jan-13 19:31N 59°52' E 030°13'0 0.0
2017-Jan-13 18:31N 59°52' E 030°13'0 0.0
2017-Jan-13 17:31N 59°52' E 030°13'0 0.0
2017-Jan-13 16:31N 59°52' E 030°13'0 0.0
2017-Jan-13 15:28N 59°52' E 030°13'0 0.0
2017-Jan-13 14:31N 59°52' E 030°13'0 0.0
2017-Jan-13 13:28N 59°52' E 030°13'0 0.0
2017-Jan-13 12:28N 59°52' E 030°13'0 0.0
2017-Jan-13 11:28N 59°52' E 030°13'  

Dump ship's entire track history